createdAt,value
2019-06-08T00:01:22.870Z,28.37
2019-06-08T00:03:53.094Z,28.57
2019-06-08T00:06:23.199Z,29.07
2019-06-08T00:08:53.310Z,29.92
2019-06-08T00:11:23.580Z,29.82
2019-06-08T00:13:53.751Z,29.85
2019-06-08T00:16:23.961Z,29.48
2019-06-08T00:18:54.100Z,28.50
2019-06-08T00:21:25.037Z,28.42
2019-06-08T00:23:54.989Z,30.20
2019-06-08T00:26:25.045Z,29.15
2019-06-08T00:28:55.107Z,27.60
2019-06-08T00:31:25.114Z,31.50
2019-06-08T00:33:55.109Z,28.90
2019-06-08T00:36:25.113Z,29.23
2019-06-08T00:38:56.283Z,28.47
2019-06-08T00:41:26.213Z,26.93
2019-06-08T00:43:56.238Z,27.10
2019-06-08T00:46:26.174Z,27.90
2019-06-08T00:48:56.139Z,28.27
2019-06-08T00:51:26.107Z,29.25
2019-06-08T00:53:56.041Z,32.05
2019-06-08T00:56:26.177Z,29.48
2019-06-08T00:58:56.251Z,29.23
2019-06-08T01:01:28.087Z,30.55
2019-06-08T01:03:57.886Z,30.48
2019-06-08T01:06:27.834Z,29.27
2019-06-08T01:08:57.822Z,28.50
2019-06-08T01:11:28.883Z,28.52
2019-06-08T01:13:59.048Z,28.73
2019-06-08T01:16:29.282Z,27.87
2019-06-08T01:18:59.386Z,27.80
2019-06-08T01:21:30.036Z,28.60
2019-06-08T01:24:00.106Z,27.25
2019-06-08T01:26:30.368Z,27.98
2019-06-08T01:29:00.441Z,28.62
2019-06-08T01:31:30.538Z,28.95
2019-06-08T01:34:00.684Z,28.77
2019-06-08T01:36:31.181Z,28.65
2019-06-08T01:39:01.698Z,28.95
2019-06-08T01:41:33.331Z,28.50
2019-06-08T01:44:06.268Z,26.97
2019-06-08T01:46:36.287Z,27.15
2019-06-08T01:49:06.246Z,28.67
2019-06-08T01:51:36.238Z,26.60
2019-06-08T01:54:05.866Z,27.67
2019-06-08T01:56:35.754Z,28.30
2019-06-08T01:59:05.814Z,29.50
2019-06-08T02:01:35.755Z,28.67
2019-06-08T02:04:05.788Z,28.38
2019-06-08T02:06:35.730Z,29.15
2019-06-08T02:09:07.939Z,27.95
2019-06-08T02:11:37.891Z,27.25
2019-06-08T02:14:07.522Z,28.35
2019-06-08T02:16:37.399Z,28.15
2019-06-08T02:19:07.103Z,28.10
2019-06-08T02:21:37.085Z,29.20
2019-06-08T02:24:07.020Z,28.83
2019-06-08T02:26:36.974Z,28.77
2019-06-08T02:29:08.221Z,28.30
2019-06-08T02:31:38.296Z,29.50
2019-06-08T02:34:08.494Z,28.73
2019-06-08T02:36:38.449Z,29.67
2019-06-08T02:39:09.019Z,28.98
2019-06-08T02:41:40.056Z,30.48
2019-06-08T02:44:10.396Z,32.35
2019-06-08T02:46:40.602Z,32.53
2019-06-08T02:49:10.808Z,31.70
2019-06-08T02:51:41.259Z,32.33
2019-06-08T02:54:12.191Z,28.98
2019-06-08T02:56:43.279Z,31.80
2019-06-08T02:59:15.025Z,31.07
2019-06-08T03:01:48.331Z,29.60
2019-06-08T03:04:20.572Z,30.23
2019-06-08T03:06:52.279Z,28.73
2019-06-08T03:09:23.777Z,29.15
2019-06-08T03:11:55.658Z,30.85
2019-06-08T03:14:27.897Z,31.30
2019-06-08T03:16:57.968Z,31.60
2019-06-08T03:19:28.016Z,30.52
2019-06-08T03:21:58.077Z,29.00
2019-06-08T03:24:28.047Z,28.38
2019-06-08T03:26:57.994Z,29.92
2019-06-08T03:29:28.107Z,31.45
2019-06-08T03:31:58.139Z,29.40
2019-06-08T03:34:28.169Z,30.00
2019-06-08T03:36:58.228Z,29.77
2019-06-08T03:39:28.272Z,29.60
2019-06-08T03:41:58.370Z,29.20
2019-06-08T03:44:28.461Z,29.63
2019-06-08T03:46:58.534Z,27.40
2019-06-08T03:49:41.059Z,27.80
2019-06-08T03:52:00.756Z,28.00
2019-06-08T03:54:31.742Z,27.98
2019-06-08T03:57:01.777Z,28.07
2019-06-08T03:59:31.778Z,26.97
2019-06-08T04:02:01.834Z,28.62
2019-06-08T04:04:31.854Z,27.45
2019-06-08T04:07:01.864Z,25.95
2019-06-08T04:09:31.877Z,27.02
2019-06-08T04:12:01.485Z,29.27
2019-06-08T04:14:31.057Z,26.30
2019-06-08T04:17:01.030Z,26.68
2019-06-08T04:19:31.049Z,29.32
2019-06-08T04:22:01.081Z,27.70
2019-06-08T04:24:31.039Z,29.82
2019-06-08T04:27:00.660Z,29.72
2019-06-08T04:29:30.990Z,27.65
2019-06-08T04:32:00.862Z,30.27
2019-06-08T04:34:30.862Z,31.77
2019-06-08T04:37:00.809Z,29.48
2019-06-08T04:39:30.798Z,29.57
2019-06-08T04:42:00.801Z,30.08
2019-06-08T04:44:30.764Z,30.60
2019-06-08T04:47:00.826Z,32.08
2019-06-08T04:49:30.840Z,30.75
2019-06-08T04:52:00.450Z,29.82
2019-06-08T04:54:29.988Z,30.80
2019-06-08T04:56:59.519Z,29.65
2019-06-08T04:59:29.160Z,28.70
2019-06-08T05:01:58.776Z,35.10
2019-06-08T05:04:28.429Z,34.17
2019-06-08T05:06:58.481Z,33.95
2019-06-08T05:09:28.699Z,33.92
2019-06-08T05:11:58.636Z,33.42
2019-06-08T05:14:28.619Z,32.55
2019-06-08T05:16:58.957Z,30.32
2019-06-08T05:19:29.193Z,29.00
2019-06-08T05:21:58.798Z,28.10
2019-06-08T05:24:28.350Z,29.18
2019-06-08T05:26:57.940Z,29.27
2019-06-08T05:29:27.841Z,30.30
2019-06-08T05:31:57.845Z,31.82
2019-06-08T05:34:27.788Z,31.68
2019-06-08T05:36:57.866Z,30.20
2019-06-08T05:39:27.881Z,29.60
2019-06-08T05:41:57.818Z,29.30
2019-06-08T05:44:27.546Z,29.70
2019-06-08T05:46:56.848Z,26.67
2019-06-08T05:49:26.785Z,29.77
2019-06-08T05:51:56.450Z,27.27
2019-06-08T05:54:25.821Z,26.77
2019-06-08T05:56:55.063Z,23.60
2019-06-08T05:59:24.619Z,22.90
2019-06-08T06:01:54.283Z,24.63
2019-06-08T06:04:24.008Z,24.87
2019-06-08T06:06:53.667Z,27.87
2019-06-08T06:09:23.634Z,23.80
2019-06-08T06:11:54.804Z,23.53
2019-06-08T06:14:24.829Z,26.03
2019-06-08T06:16:54.475Z,24.57
2019-06-08T06:19:24.215Z,23.30
2019-06-08T06:21:53.872Z,23.63
2019-06-08T06:24:23.566Z,21.43
2019-06-08T06:26:53.242Z,23.43
2019-06-08T06:29:22.970Z,24.47
2019-06-08T06:31:52.602Z,24.17
2019-06-08T06:34:22.238Z,23.47
2019-06-08T06:36:52.215Z,22.83
2019-06-08T06:39:23.043Z,22.90
2019-06-08T06:41:52.743Z,22.43
2019-06-08T06:44:22.413Z,22.23
2019-06-08T06:46:52.505Z,21.57
2019-06-08T06:49:23.519Z,21.53
2019-06-08T06:51:53.451Z,21.20
2019-06-08T06:54:23.159Z,21.93
2019-06-08T06:56:54.114Z,21.23
2019-06-08T06:59:24.008Z,22.50
2019-06-08T07:01:57.319Z,21.87
2019-06-08T07:04:25.498Z,21.97
2019-06-08T07:06:55.127Z,21.03
2019-06-08T07:09:24.870Z,21.63
2019-06-08T07:11:56.642Z,20.53
2019-06-08T07:14:26.254Z,19.37
2019-06-08T07:16:56.154Z,17.93
2019-06-08T07:19:27.008Z,17.63
2019-06-08T07:21:56.777Z,16.10
2019-06-08T07:24:26.863Z,14.40
2019-06-08T07:26:56.236Z,13.60
2019-06-08T07:29:25.792Z,13.33
2019-06-08T07:31:56.240Z,10.53
2019-06-08T07:34:25.557Z,10.50
2019-06-08T07:36:55.541Z,11.53
2019-06-08T07:39:24.958Z,10.23
2019-06-08T07:41:55.885Z,10.90
2019-06-08T07:44:25.581Z,11.00
2019-06-08T07:46:55.826Z,11.70
2019-06-08T07:49:25.527Z,11.13
2019-06-08T07:52:02.200Z,10.70
2019-06-08T07:54:25.843Z,68.87
2019-06-08T07:56:55.499Z,9.77
2019-06-08T07:59:25.991Z,8.50
2019-06-08T08:01:58.234Z,9.50
2019-06-08T08:04:28.310Z,9.10
2019-06-08T08:06:58.793Z,9.13
2019-06-08T08:09:29.286Z,8.97
2019-06-08T08:11:59.728Z,8.87
2019-06-08T08:14:29.440Z,9.17
2019-06-08T08:16:59.296Z,9.73
2019-06-08T08:19:28.945Z,9.40
2019-06-08T08:22:00.947Z,8.27
2019-06-08T08:24:30.215Z,9.40
2019-06-08T08:27:03.536Z,7.93
2019-06-08T08:29:31.373Z,7.90
2019-06-08T08:32:02.078Z,7.77
2019-06-08T08:34:31.938Z,7.07
2019-06-08T08:37:06.053Z,12.33
2019-06-08T08:39:32.246Z,5.47
2019-06-08T08:42:04.814Z,6.47
2019-06-08T08:44:32.481Z,5.87
2019-06-08T08:47:02.841Z,5.40
2019-06-08T08:49:32.543Z,5.90
2019-06-08T08:52:01.963Z,6.33
2019-06-08T08:54:31.258Z,5.50
2019-06-08T08:57:04.491Z,5.77
2019-06-08T08:59:31.463Z,5.67
2019-06-08T09:02:02.569Z,6.00
2019-06-08T09:04:31.955Z,5.23
2019-06-08T09:07:05.648Z,5.03
2019-06-08T09:09:32.982Z,5.67
2019-06-08T09:12:04.285Z,5.83
2019-06-08T09:14:34.040Z,5.43
2019-06-08T09:17:04.087Z,5.77
2019-06-08T09:19:33.891Z,5.03
2019-06-08T09:22:04.353Z,6.17
2019-06-08T09:24:33.857Z,5.33
2019-06-08T09:27:04.277Z,8.60
2019-06-08T09:29:34.108Z,6.20
2019-06-08T09:32:04.126Z,5.70
2019-06-08T09:34:33.909Z,5.60
2019-06-08T09:37:05.094Z,6.40
2019-06-08T09:39:35.030Z,5.90
2019-06-08T09:42:05.186Z,6.17
2019-06-08T09:44:37.499Z,6.50
2019-06-08T09:47:12.099Z,6.50
2019-06-08T09:49:37.951Z,6.60
2019-06-08T09:52:08.554Z,6.23
2019-06-08T09:54:38.855Z,6.23
2019-06-08T09:57:09.393Z,6.73
2019-06-08T09:59:41.169Z,7.13
2019-06-08T10:02:12.932Z,6.20
2019-06-08T10:04:42.052Z,23.80
2019-06-08T10:07:11.973Z,18.13
2019-06-08T10:09:43.462Z,6.83
2019-06-08T10:12:13.038Z,6.60
2019-06-08T10:14:42.801Z,6.67
2019-06-08T10:17:12.550Z,6.60
2019-06-08T10:19:42.224Z,6.50
2019-06-08T10:22:12.002Z,6.20
2019-06-08T10:24:41.711Z,6.20
2019-06-08T10:27:11.984Z,6.13
2019-06-08T10:29:42.206Z,5.93
2019-06-08T10:32:13.780Z,6.33
2019-06-08T10:34:43.557Z,7.03
2019-06-08T10:37:13.819Z,6.43
2019-06-08T10:39:43.801Z,6.20
2019-06-08T10:42:13.763Z,6.30
2019-06-08T10:44:43.510Z,6.00
2019-06-08T10:47:13.245Z,5.87
2019-06-08T10:49:42.999Z,5.53
2019-06-08T10:52:12.710Z,5.73
2019-06-08T10:54:42.464Z,53.37
2019-06-08T10:57:12.433Z,6.33
2019-06-08T10:59:43.170Z,5.47
2019-06-08T11:02:14.397Z,5.70
2019-06-08T11:04:44.582Z,8.47
2019-06-08T11:07:16.359Z,11.47
2019-06-08T11:09:48.143Z,5.40
2019-06-08T11:12:18.324Z,5.13
2019-06-08T11:14:48.280Z,5.60
2019-06-08T11:17:18.079Z,5.83
2019-06-08T11:19:48.142Z,5.57
2019-06-08T11:22:18.360Z,5.40
2019-06-08T11:24:48.671Z,5.93
2019-06-08T11:27:18.886Z,5.47
2019-06-08T11:29:48.754Z,5.33
2019-06-08T11:32:19.767Z,5.37
2019-06-08T11:34:49.080Z,5.90
2019-06-08T11:37:20.962Z,5.53
2019-06-08T11:39:50.028Z,5.53
2019-06-08T11:42:19.778Z,5.40
2019-06-08T11:44:51.112Z,5.50
2019-06-08T11:47:27.762Z,5.20
2019-06-08T11:49:58.014Z,5.50
2019-06-08T11:52:28.582Z,5.37
2019-06-08T11:55:01.701Z,8.90
2019-06-08T11:57:29.819Z,6.00
2019-06-08T11:59:59.525Z,5.03
2019-06-08T12:02:29.259Z,5.47
2019-06-08T12:04:58.889Z,5.30
2019-06-08T12:07:30.344Z,5.40
2019-06-08T12:09:59.864Z,5.70
2019-06-08T12:12:29.499Z,5.20
2019-06-08T12:14:58.886Z,4.93
2019-06-08T12:17:28.460Z,4.83
2019-06-08T12:19:58.089Z,5.27
2019-06-08T12:22:27.480Z,5.00
2019-06-08T12:24:57.204Z,5.33
2019-06-08T12:27:33.633Z,4.90
2019-06-08T12:29:58.750Z,5.47
2019-06-08T12:32:34.463Z,5.97
2019-06-08T12:35:05.152Z,12.30
2019-06-08T12:37:34.816Z,6.20
2019-06-08T12:40:07.591Z,5.93
2019-06-08T12:42:38.139Z,6.87
2019-06-08T12:45:09.238Z,5.90
2019-06-08T12:47:38.759Z,7.60
2019-06-08T12:50:11.717Z,6.60
2019-06-08T12:52:42.513Z,6.27
2019-06-08T12:55:17.746Z,7.00
2019-06-08T12:57:43.856Z,6.73
2019-06-08T13:00:14.924Z,6.70
2019-06-08T13:02:47.798Z,6.30
2019-06-08T13:05:21.524Z,6.30
2019-06-08T13:07:49.618Z,6.60
2019-06-08T13:10:22.419Z,5.67
2019-06-08T13:12:50.622Z,5.07
2019-06-08T13:15:21.948Z,5.80
2019-06-08T13:17:51.874Z,6.60
2019-06-08T13:20:22.336Z,6.40
2019-06-08T13:22:52.083Z,6.47
2019-06-08T13:25:36.443Z,7.70
2019-06-08T13:27:52.419Z,7.20
2019-06-08T13:30:25.867Z,7.80
2019-06-08T13:32:52.781Z,7.27
2019-06-08T13:35:22.502Z,7.50
2019-06-08T13:37:52.234Z,34.27
2019-06-08T13:40:23.641Z,6.97
2019-06-08T13:42:53.153Z,6.73
2019-06-08T13:45:23.525Z,6.83
2019-06-08T13:47:53.193Z,6.90
2019-06-08T13:50:23.927Z,6.67
2019-06-08T13:52:53.243Z,6.73
2019-06-08T13:55:42.584Z,7.00
2019-06-08T13:57:53.387Z,12.33
2019-06-08T14:00:26.117Z,7.63
2019-06-08T14:02:57.874Z,7.67
2019-06-08T14:05:30.916Z,7.87
2019-06-08T14:08:00.418Z,8.70
2019-06-08T14:10:37.893Z,10.80
2019-06-08T14:13:08.723Z,11.30
2019-06-08T14:15:39.392Z,11.50
2019-06-08T14:18:09.235Z,10.50
2019-06-08T14:20:38.986Z,12.00
2019-06-08T14:23:09.261Z,12.43
2019-06-08T14:25:50.081Z,12.87
2019-06-08T14:28:10.496Z,12.73
2019-06-08T14:30:39.928Z,12.17
2019-06-08T14:33:09.768Z,13.47
2019-06-08T14:35:39.085Z,13.47
2019-06-08T14:38:08.419Z,13.40
2019-06-08T14:40:37.736Z,13.57
2019-06-08T14:43:10.417Z,14.27
2019-06-08T14:45:38.536Z,13.87
2019-06-08T14:48:08.161Z,14.10
2019-06-08T14:50:40.724Z,14.00
2019-06-08T14:53:08.820Z,13.13
2019-06-08T14:55:38.752Z,14.00
2019-06-08T14:58:08.606Z,13.70
2019-06-08T15:00:38.419Z,14.50
2019-06-08T15:03:07.931Z,14.73
2019-06-08T15:05:37.659Z,14.33
2019-06-08T15:08:08.364Z,14.60
2019-06-08T15:10:38.562Z,14.10
2019-06-08T15:13:08.351Z,12.37
2019-06-08T15:15:38.300Z,11.93
2019-06-08T15:18:10.996Z,12.33
2019-06-08T15:20:39.534Z,12.63
2019-06-08T15:23:09.093Z,11.50
2019-06-08T15:25:38.866Z,11.87
2019-06-08T15:28:08.586Z,11.67
2019-06-08T15:30:38.229Z,11.97
2019-06-08T15:33:07.868Z,11.40
2019-06-08T15:35:37.849Z,12.30
2019-06-08T15:38:08.366Z,10.97
2019-06-08T15:40:39.285Z,10.73
2019-06-08T15:43:08.830Z,11.00
2019-06-08T15:45:38.528Z,11.03
2019-06-08T15:48:08.164Z,10.27
2019-06-08T15:50:38.008Z,8.90
2019-06-08T15:53:08.597Z,7.80
2019-06-08T15:55:38.409Z,7.13
2019-06-08T15:58:08.958Z,6.60
2019-06-08T16:00:38.890Z,5.90
2019-06-08T16:03:08.591Z,5.77
2019-06-08T16:05:37.960Z,6.00
2019-06-08T16:08:07.559Z,5.20
2019-06-08T16:10:37.283Z,5.33
2019-06-08T16:13:07.000Z,5.10
2019-06-08T16:15:39.414Z,5.20
2019-06-08T16:18:09.183Z,4.90
2019-06-08T16:20:39.116Z,4.70
2019-06-08T16:23:08.982Z,4.73
2019-06-08T16:25:39.027Z,4.73
2019-06-08T16:28:10.047Z,4.50
2019-06-08T16:30:39.716Z,4.37
2019-06-08T16:33:09.473Z,4.63
2019-06-08T16:35:39.952Z,4.80
2019-06-08T16:38:09.842Z,4.50
2019-06-08T16:40:40.497Z,4.33
2019-06-08T16:43:10.638Z,4.00
2019-06-08T16:45:40.500Z,4.17
2019-06-08T16:48:10.171Z,4.33
2019-06-08T16:50:39.887Z,4.00
2019-06-08T16:53:09.633Z,3.60
2019-06-08T16:55:39.393Z,4.27
2019-06-08T16:58:09.195Z,3.60
2019-06-08T17:00:42.064Z,3.50
2019-06-08T17:03:10.661Z,3.60
2019-06-08T17:05:41.519Z,3.47
2019-06-08T17:08:11.895Z,3.40
2019-06-08T17:10:41.534Z,3.60
2019-06-08T17:13:12.104Z,3.23
2019-06-08T17:15:43.090Z,3.30
2019-06-08T17:18:12.905Z,2.93
2019-06-08T17:20:42.547Z,3.57
2019-06-08T17:23:12.230Z,3.13
2019-06-08T17:25:41.882Z,3.27
2019-06-08T17:28:11.539Z,2.90
2019-06-08T17:30:41.522Z,3.50
2019-06-08T17:33:11.387Z,3.60
2019-06-08T17:35:42.338Z,3.60
2019-06-08T17:38:12.279Z,3.70
2019-06-08T17:40:42.392Z,2.90
2019-06-08T17:43:12.430Z,3.63
2019-06-08T17:45:42.978Z,3.50
2019-06-08T17:48:13.834Z,3.93
2019-06-08T17:50:43.466Z,3.20
2019-06-08T17:53:13.144Z,3.93
2019-06-08T17:55:43.912Z,3.10
2019-06-08T17:58:13.636Z,3.20
2019-06-08T18:00:45.031Z,3.33
2019-06-08T18:03:17.117Z,3.37
2019-06-08T18:05:48.464Z,3.07
2019-06-08T18:08:19.492Z,3.50
2019-06-08T18:10:50.276Z,3.80
2019-06-08T18:13:20.125Z,3.50
2019-06-08T18:15:49.791Z,3.80
2019-06-08T18:18:19.543Z,4.13
2019-06-08T18:20:51.970Z,4.00
2019-06-08T18:23:20.707Z,3.90
2019-06-08T18:25:50.646Z,3.67
2019-06-08T18:28:20.278Z,3.90
2019-06-08T18:30:50.000Z,3.90
2019-06-08T18:33:19.863Z,3.67
2019-06-08T18:35:49.671Z,4.10
2019-06-08T18:38:19.498Z,4.10
2019-06-08T18:40:49.337Z,4.20
2019-06-08T18:43:18.991Z,3.90
2019-06-08T18:45:49.853Z,4.20
2019-06-08T18:48:19.754Z,4.27
2019-06-08T18:50:49.427Z,5.50
2019-06-08T18:53:20.139Z,3.90
2019-06-08T18:55:50.494Z,3.90
2019-06-08T18:58:24.638Z,3.57
2019-06-08T19:00:53.105Z,4.20
2019-06-08T19:03:22.825Z,3.47
2019-06-08T19:05:53.129Z,3.70
2019-06-08T19:08:23.500Z,3.73
2019-06-08T19:10:53.359Z,3.60
2019-06-08T19:13:23.092Z,3.47
2019-06-08T19:15:53.097Z,3.60
2019-06-08T19:18:22.783Z,4.00
2019-06-08T19:20:53.574Z,3.80
2019-06-08T19:23:23.586Z,3.87
2019-06-08T19:25:53.595Z,3.97
2019-06-08T19:28:36.018Z,3.70
2019-06-08T19:30:54.638Z,4.03
2019-06-08T19:33:24.308Z,3.33
2019-06-08T19:35:54.178Z,4.00
2019-06-08T19:38:23.996Z,4.00
2019-06-08T19:40:53.740Z,3.73
2019-06-08T19:43:23.466Z,3.43
2019-06-08T19:45:57.795Z,4.03
2019-06-08T19:48:30.661Z,4.43
2019-06-08T19:50:58.275Z,4.40
2019-06-08T19:53:28.632Z,4.40
2019-06-08T19:55:58.492Z,4.63
2019-06-08T19:58:28.479Z,4.83
2019-06-08T20:00:58.952Z,4.80
2019-06-08T20:03:28.787Z,4.83
2019-06-08T20:05:58.534Z,4.27
2019-06-08T20:08:29.136Z,4.70
2019-06-08T20:10:59.166Z,4.43
2019-06-08T20:13:28.802Z,4.00
2019-06-08T20:16:02.154Z,4.40
2019-06-08T20:18:30.862Z,4.70
2019-06-08T20:21:00.576Z,4.40
2019-06-08T20:23:30.370Z,4.37
2019-06-08T20:26:00.767Z,4.07
2019-06-08T20:28:30.686Z,4.60
2019-06-08T20:31:01.466Z,4.43
2019-06-08T20:33:31.094Z,4.40
2019-06-08T20:36:00.757Z,4.33
2019-06-08T20:38:37.286Z,4.83
2019-06-08T20:41:01.858Z,4.30
2019-06-08T20:43:31.609Z,4.80
2019-06-08T20:46:01.848Z,4.70
2019-06-08T20:48:31.585Z,4.40
2019-06-08T20:51:01.814Z,4.73
2019-06-08T20:53:31.481Z,4.77
2019-06-08T20:56:01.119Z,4.30
2019-06-08T20:58:31.185Z,5.53
2019-06-08T21:01:00.922Z,4.50
2019-06-08T21:03:30.558Z,4.70
2019-06-08T21:06:00.599Z,5.03
2019-06-08T21:08:30.323Z,5.10
2019-06-08T21:11:00.053Z,4.47
2019-06-08T21:13:29.690Z,4.80
2019-06-08T21:16:00.713Z,4.60
2019-06-08T21:18:30.645Z,4.30
2019-06-08T21:21:00.491Z,4.83
2019-06-08T21:23:32.133Z,4.80
2019-06-08T21:26:01.718Z,4.50
2019-06-08T21:28:31.429Z,4.53
2019-06-08T21:31:02.308Z,4.30
2019-06-08T21:33:33.659Z,6.80
2019-06-08T21:36:05.104Z,4.33
2019-06-08T21:38:34.718Z,4.40
2019-06-08T21:41:04.531Z,4.20
2019-06-08T21:43:34.188Z,4.47
2019-06-08T21:46:04.014Z,4.30
2019-06-08T21:48:34.050Z,4.55
2019-06-08T21:51:03.862Z,4.57
2019-06-08T21:53:33.518Z,4.70
2019-06-08T21:56:03.514Z,5.45
2019-06-08T21:58:33.476Z,5.33
2019-06-08T22:01:03.490Z,5.40
2019-06-08T22:03:35.098Z,5.50
2019-06-08T22:06:07.607Z,5.10
2019-06-08T22:08:37.555Z,5.15
2019-06-08T22:11:08.596Z,4.90
2019-06-08T22:13:38.905Z,4.20
2019-06-08T22:16:08.933Z,4.97
2019-06-08T22:18:38.645Z,5.13
2019-06-08T22:21:08.693Z,5.15
2019-06-08T22:23:38.692Z,5.35
2019-06-08T22:26:08.504Z,5.30
2019-06-08T22:28:41.243Z,4.35
2019-06-08T22:31:10.964Z,3.90
2019-06-08T22:33:40.678Z,4.00
2019-06-08T22:36:10.542Z,4.57
2019-06-08T22:38:40.501Z,4.30
2019-06-08T22:41:10.431Z,3.77
2019-06-08T22:43:40.427Z,4.00
2019-06-08T22:46:10.443Z,3.30
2019-06-08T22:48:40.160Z,3.10
2019-06-08T22:51:10.069Z,3.60
2019-06-08T22:53:40.041Z,3.30
2019-06-08T22:56:09.769Z,3.13
2019-06-08T22:58:39.522Z,3.07
2019-06-08T23:01:11.559Z,3.53
2019-06-08T23:03:40.640Z,3.47
2019-06-08T23:06:10.727Z,3.72
2019-06-08T23:08:40.501Z,3.80
2019-06-08T23:11:13.390Z,3.30
2019-06-08T23:13:43.316Z,3.27
2019-06-08T23:16:12.978Z,4.10
2019-06-08T23:18:42.888Z,3.42
2019-06-08T23:21:13.001Z,3.42
2019-06-08T23:23:42.994Z,3.60
2019-06-08T23:26:12.985Z,3.20
2019-06-08T23:28:42.896Z,3.45
2019-06-08T23:31:21.727Z,4.28
2019-06-08T23:33:44.479Z,3.77
2019-06-08T23:38:48.108Z,3.60
2019-06-08T23:41:17.917Z,3.20
2019-06-08T23:43:48.174Z,3.77
2019-06-08T23:46:18.591Z,3.67
2019-06-08T23:48:48.799Z,3.50
2019-06-08T23:51:18.934Z,3.50
2019-06-08T23:53:49.117Z,3.50
2019-06-08T23:56:19.120Z,3.55
2019-06-08T23:58:49.061Z,3.62
